createdAt,value
2022-11-19T00:05:26.013Z,7.93
2022-11-19T00:13:01.230Z,8.10
2022-11-19T00:20:36.730Z,8.07
2022-11-19T00:28:11.947Z,7.93
2022-11-19T00:35:45.834Z,6.82
2022-11-19T00:43:41.393Z,8.15
2022-11-19T00:51:16.307Z,7.03
2022-11-19T00:58:52.861Z,8.30
2022-11-19T01:06:27.510Z,7.55
2022-11-19T01:14:03.711Z,8.60
2022-11-19T01:21:38.056Z,8.75
2022-11-19T01:29:13.245Z,8.63
2022-11-19T01:36:47.162Z,8.25
2022-11-19T01:44:57.509Z,7.47
2022-11-19T01:52:31.714Z,7.78
2022-11-19T02:00:08.888Z,7.47
2022-11-19T02:07:46.313Z,7.57
2022-11-19T02:15:33.372Z,7.20
2022-11-19T02:23:36.072Z,6.70
2022-11-19T02:31:16.095Z,6.82
2022-11-19T02:38:54.753Z,7.05
2022-11-19T02:46:30.207Z,6.72
2022-11-19T02:54:06.112Z,7.40
2022-11-19T03:02:02.459Z,7.22
2022-11-19T03:09:40.632Z,7.40
2022-11-19T03:17:18.447Z,6.55
2022-11-19T03:25:00.204Z,6.93
2022-11-19T03:32:38.841Z,7.30
2022-11-19T03:40:16.367Z,8.38
2022-11-19T03:47:53.203Z,8.15
2022-11-19T03:55:32.865Z,7.53
2022-11-19T04:03:08.156Z,7.82
2022-11-19T04:10:42.226Z,7.32
2022-11-19T04:18:17.434Z,7.95
2022-11-19T04:25:51.538Z,7.97
2022-11-19T04:33:26.730Z,7.43
2022-11-19T04:41:00.591Z,7.75
2022-11-19T04:48:36.289Z,7.57
2022-11-19T04:56:10.259Z,7.45
2022-11-19T05:03:45.489Z,7.43
2022-11-19T05:11:19.382Z,7.63
2022-11-19T05:18:54.652Z,7.32
2022-11-19T05:26:28.522Z,7.03
2022-11-19T05:34:03.740Z,7.22
2022-11-19T05:41:37.818Z,8.13
2022-11-19T05:49:13.206Z,7.05
2022-11-19T05:56:47.393Z,7.35
2022-11-19T06:04:22.567Z,7.85
2022-11-19T06:11:56.388Z,6.85
2022-11-19T06:19:31.618Z,8.15
2022-11-19T06:27:05.407Z,7.45
2022-11-19T06:34:40.702Z,7.13
2022-11-19T06:42:32.148Z,7.70
2022-11-19T06:50:08.885Z,6.43
2022-11-19T06:57:42.630Z,6.15
2022-11-19T07:05:18.690Z,5.78
2022-11-19T07:12:52.509Z,7.30
2022-11-19T07:20:27.654Z,6.60
2022-11-19T07:28:01.500Z,6.53
2022-11-19T07:35:36.760Z,6.85
2022-11-19T07:43:10.614Z,6.72
2022-11-19T07:50:56.208Z,7.13
2022-11-19T07:58:30.837Z,6.60
2022-11-19T08:06:07.432Z,7.63
2022-11-19T08:13:41.573Z,7.40
2022-11-19T08:21:16.725Z,8.13
2022-11-19T08:28:50.682Z,6.75
2022-11-19T08:36:25.876Z,6.38
2022-11-19T08:44:01.099Z,7.25
2022-11-19T08:51:36.303Z,7.18
2022-11-19T08:59:10.551Z,8.15
2022-11-19T09:06:45.890Z,5.65
2022-11-19T09:14:20.019Z,6.90
2022-11-19T09:21:55.437Z,5.70
2022-11-19T09:29:29.248Z,4.63
2022-11-19T09:37:04.624Z,5.32
2022-11-19T09:44:53.013Z,5.07
2022-11-19T09:52:33.841Z,4.32
2022-11-19T10:00:10.911Z,4.82
2022-11-19T10:07:59.077Z,3.78
2022-11-19T10:15:38.496Z,3.90
2022-11-19T10:23:18.556Z,3.42
2022-11-19T10:30:55.815Z,3.38
2022-11-19T10:38:35.269Z,3.95
2022-11-19T10:46:14.264Z,3.92
2022-11-19T10:53:50.385Z,3.85
2022-11-19T11:01:30.194Z,4.35
2022-11-19T11:09:05.737Z,3.63
2022-11-19T11:16:46.870Z,3.95
2022-11-19T11:24:23.008Z,4.07
2022-11-19T11:31:56.884Z,3.63
2022-11-19T11:39:35.699Z,3.10
2022-11-19T11:47:14.351Z,3.28
2022-11-19T11:54:58.515Z,3.40
2022-11-19T12:02:34.621Z,3.03
2022-11-19T12:10:25.128Z,3.00
2022-11-19T12:18:07.768Z,3.63
2022-11-19T12:25:54.640Z,3.72
2022-11-19T12:33:45.475Z,4.03
2022-11-19T12:41:38.282Z,4.93
2022-11-19T12:49:31.869Z,4.95
2022-11-19T12:57:23.965Z,4.75
2022-11-19T13:05:06.123Z,5.10
2022-11-19T13:12:45.203Z,5.07
2022-11-19T13:20:25.900Z,3.85
2022-11-19T13:28:05.250Z,4.30
2022-11-19T13:35:46.182Z,4.22
2022-11-19T13:43:40.816Z,4.22
2022-11-19T13:51:25.576Z,3.90
2022-11-19T13:59:00.943Z,4.53
2022-11-19T14:07:05.934Z,4.07
2022-11-19T14:15:23.509Z,4.10
2022-11-19T14:23:15.660Z,4.38
2022-11-19T14:31:05.774Z,4.63
2022-11-19T14:38:45.291Z,4.97
2022-11-19T14:46:27.602Z,4.47
2022-11-19T14:54:07.136Z,6.28
2022-11-19T15:01:59.265Z,5.07
2022-11-19T15:09:52.642Z,4.00
2022-11-19T15:17:29.294Z,4.63
2022-11-19T15:25:28.088Z,4.35
2022-11-19T15:33:19.487Z,4.00
2022-11-19T15:40:57.857Z,4.32
2022-11-19T15:48:40.521Z,5.72
2022-11-19T15:56:14.710Z,4.38
2022-11-19T16:11:47.766Z,5.00
2022-11-19T16:19:23.684Z,6.55
2022-11-19T16:26:58.151Z,6.07
2022-11-19T16:34:36.766Z,6.38
2022-11-19T16:42:22.501Z,5.57
2022-11-19T16:50:01.812Z,5.05
2022-11-19T16:57:36.244Z,5.50
2022-11-19T17:05:15.552Z,6.45
2022-11-19T17:12:51.362Z,5.97
2022-11-19T17:20:53.081Z,5.60
2022-11-19T17:28:35.359Z,5.75
2022-11-19T17:36:14.525Z,6.10
2022-11-19T17:44:05.836Z,6.50
2022-11-19T17:51:41.179Z,6.45
2022-11-19T17:59:15.112Z,5.38
2022-11-19T18:06:50.704Z,6.10
2022-11-19T18:14:24.683Z,6.80
2022-11-19T18:22:00.769Z,7.22
2022-11-19T18:29:34.913Z,7.97
2022-11-19T18:44:46.079Z,7.60
2022-11-19T18:52:21.759Z,8.07
2022-11-19T18:59:55.770Z,8.60
2022-11-19T19:07:31.321Z,7.43
2022-11-19T19:15:05.848Z,7.50
2022-11-19T19:22:41.446Z,7.65
2022-11-19T19:30:16.235Z,9.23
2022-11-19T19:37:51.705Z,8.13
2022-11-19T19:45:26.038Z,8.10
2022-11-19T19:53:01.879Z,8.48
2022-11-19T20:00:36.040Z,8.23
2022-11-19T20:08:11.677Z,7.68
2022-11-19T20:15:45.478Z,9.23
2022-11-19T20:23:20.815Z,10.63
2022-11-19T20:31:03.152Z,9.77
2022-11-19T20:38:39.119Z,8.65
2022-11-19T20:46:15.866Z,8.02
2022-11-19T20:53:51.255Z,8.93
2022-11-19T21:01:31.329Z,6.57
2022-11-19T21:09:07.535Z,7.82
2022-11-19T21:16:41.436Z,7.30
2022-11-19T21:24:16.862Z,7.40
2022-11-19T21:31:50.934Z,8.60
2022-11-19T21:39:26.400Z,9.50
2022-11-19T21:47:00.577Z,7.13
2022-11-19T22:02:11.969Z,7.05
2022-11-19T22:09:47.249Z,8.52
2022-11-19T22:17:21.197Z,7.47
2022-11-19T22:24:56.384Z,6.82
2022-11-19T22:32:30.221Z,7.95
2022-11-19T22:40:06.331Z,7.65
2022-11-19T22:47:40.182Z,7.20
2022-11-19T22:55:16.641Z,7.82
2022-11-19T23:02:50.487Z,8.05
2022-11-19T23:10:25.863Z,7.90
2022-11-19T23:17:59.688Z,8.23
2022-11-19T23:25:35.052Z,7.47
2022-11-19T23:33:09.020Z,7.30
2022-11-19T23:40:44.285Z,7.45
2022-11-19T23:48:18.063Z,7.50
2022-11-19T23:55:53.472Z,7.50
